sensor_id;sensor_type;location;lat;lon;timestamp;P1;durP1;ratioP1;P2;durP2;ratioP2
42840;SDS011;28491;46.898;7.660;2023-05-14T00:02:12;4.97;;;2.60;;
42840;SDS011;28491;46.898;7.660;2023-05-14T00:04:38;7.53;;;2.88;;
42840;SDS011;28491;46.898;7.660;2023-05-14T00:07:04;4.55;;;2.70;;
42840;SDS011;28491;46.898;7.660;2023-05-14T00:09:30;7.20;;;3.30;;
42840;SDS011;28491;46.898;7.660;2023-05-14T00:11:56;5.78;;;3.28;;
42840;SDS011;28491;46.898;7.660;2023-05-14T00:14:22;5.15;;;2.97;;
42840;SDS011;28491;46.898;7.660;2023-05-14T00:16:48;5.43;;;2.83;;
42840;SDS011;28491;46.898;7.660;2023-05-14T00:19:13;7.00;;;3.25;;
42840;SDS011;28491;46.898;7.660;2023-05-14T00:21:39;5.10;;;4.18;;
42840;SDS011;28491;46.898;7.660;2023-05-14T00:24:04;4.43;;;3.80;;
42840;SDS011;28491;46.898;7.660;2023-05-14T00:26:30;6.07;;;3.80;;
42840;SDS011;28491;46.898;7.660;2023-05-14T00:28:55;5.13;;;3.95;;
42840;SDS011;28491;46.898;7.660;2023-05-14T00:31:21;6.63;;;4.40;;
42840;SDS011;28491;46.898;7.660;2023-05-14T00:33:47;5.05;;;3.88;;
42840;SDS011;28491;46.898;7.660;2023-05-14T00:36:12;7.00;;;4.22;;
42840;SDS011;28491;46.898;7.660;2023-05-14T00:38:38;6.82;;;4.13;;
42840;SDS011;28491;46.898;7.660;2023-05-14T00:41:03;4.75;;;4.00;;
42840;SDS011;28491;46.898;7.660;2023-05-14T00:43:29;5.68;;;4.32;;
42840;SDS011;28491;46.898;7.660;2023-05-14T00:45:55;8.73;;;5.50;;
42840;SDS011;28491;46.898;7.660;2023-05-14T00:48:21;5.53;;;4.85;;
42840;SDS011;28491;46.898;7.660;2023-05-14T00:50:48;5.25;;;4.47;;
42840;SDS011;28491;46.898;7.660;2023-05-14T00:53:15;8.95;;;4.63;;
42840;SDS011;28491;46.898;7.660;2023-05-14T00:55:41;5.93;;;4.88;;
42840;SDS011;28491;46.898;7.660;2023-05-14T00:58:11;6.15;;;5.32;;
42840;SDS011;28491;46.898;7.660;2023-05-14T01:00:38;9.60;;;5.07;;
42840;SDS011;28491;46.898;7.660;2023-05-14T01:03:04;7.65;;;5.80;;
42840;SDS011;28491;46.898;7.660;2023-05-14T01:11:21;7.97;;;6.05;;
42840;SDS011;28491;46.898;7.660;2023-05-14T01:16:51;8.13;;;6.80;;
42840;SDS011;28491;46.898;7.660;2023-05-14T01:19:28;9.90;;;6.25;;
42840;SDS011;28491;46.898;7.660;2023-05-14T01:22:05;8.38;;;6.82;;
42840;SDS011;28491;46.898;7.660;2023-05-14T01:24:30;13.13;;;7.10;;
42840;SDS011;28491;46.898;7.660;2023-05-14T01:26:59;8.43;;;6.97;;
42840;SDS011;28491;46.898;7.660;2023-05-14T01:29:30;10.40;;;7.07;;
42840;SDS011;28491;46.898;7.660;2023-05-14T01:31:58;8.52;;;6.45;;
42840;SDS011;28491;46.898;7.660;2023-05-14T01:34:27;8.38;;;6.85;;
42840;SDS011;28491;46.898;7.660;2023-05-14T01:36:54;7.78;;;6.95;;
42840;SDS011;28491;46.898;7.660;2023-05-14T01:39:21;8.20;;;6.82;;
42840;SDS011;28491;46.898;7.660;2023-05-14T01:41:48;7.63;;;6.18;;
42840;SDS011;28491;46.898;7.660;2023-05-14T01:44:14;8.13;;;6.43;;
42840;SDS011;28491;46.898;7.660;2023-05-14T01:46:40;9.13;;;5.85;;
42840;SDS011;28491;46.898;7.660;2023-05-14T01:49:05;9.80;;;7.10;;
42840;SDS011;28491;46.898;7.660;2023-05-14T01:51:31;8.38;;;6.55;;
42840;SDS011;28491;46.898;7.660;2023-05-14T01:53:56;7.45;;;6.20;;
42840;SDS011;28491;46.898;7.660;2023-05-14T01:56:22;7.32;;;6.53;;
42840;SDS011;28491;46.898;7.660;2023-05-14T01:58:48;11.00;;;6.95;;
42840;SDS011;28491;46.898;7.660;2023-05-14T02:01:14;8.32;;;6.85;;
42840;SDS011;28491;46.898;7.660;2023-05-14T02:03:39;17.77;;;7.63;;
42840;SDS011;28491;46.898;7.660;2023-05-14T02:06:05;12.15;;;7.03;;
42840;SDS011;28491;46.898;7.660;2023-05-14T02:08:31;10.63;;;6.68;;
42840;SDS011;28491;46.898;7.660;2023-05-14T02:10:56;9.77;;;8.30;;
42840;SDS011;28491;46.898;7.660;2023-05-14T02:13:22;10.38;;;7.90;;
42840;SDS011;28491;46.898;7.660;2023-05-14T02:15:48;10.55;;;8.20;;
42840;SDS011;28491;46.898;7.660;2023-05-14T02:18:14;12.13;;;8.73;;
42840;SDS011;28491;46.898;7.660;2023-05-14T02:20:39;11.98;;;8.55;;
42840;SDS011;28491;46.898;7.660;2023-05-14T02:23:05;14.95;;;9.10;;
42840;SDS011;28491;46.898;7.660;2023-05-14T02:25:31;10.73;;;8.75;;
42840;SDS011;28491;46.898;7.660;2023-05-14T02:27:56;14.02;;;7.70;;
42840;SDS011;28491;46.898;7.660;2023-05-14T02:30:22;15.50;;;8.52;;
42840;SDS011;28491;46.898;7.660;2023-05-14T02:32:47;10.05;;;8.40;;
42840;SDS011;28491;46.898;7.660;2023-05-14T02:35:13;10.63;;;8.48;;
42840;SDS011;28491;46.898;7.660;2023-05-14T02:37:38;11.52;;;8.50;;
42840;SDS011;28491;46.898;7.660;2023-05-14T02:40:04;10.75;;;8.35;;
42840;SDS011;28491;46.898;7.660;2023-05-14T02:42:30;11.25;;;8.98;;
42840;SDS011;28491;46.898;7.660;2023-05-14T02:44:55;9.45;;;7.93;;
42840;SDS011;28491;46.898;7.660;2023-05-14T02:47:21;10.68;;;7.30;;
42840;SDS011;28491;46.898;7.660;2023-05-14T02:49:46;10.57;;;7.30;;
42840;SDS011;28491;46.898;7.660;2023-05-14T02:52:12;9.40;;;6.85;;
42840;SDS011;28491;46.898;7.660;2023-05-14T02:54:37;8.50;;;6.22;;
42840;SDS011;28491;46.898;7.660;2023-05-14T02:57:03;8.20;;;5.75;;
42840;SDS011;28491;46.898;7.660;2023-05-14T02:59:29;8.45;;;5.38;;
42840;SDS011;28491;46.898;7.660;2023-05-14T03:01:55;7.50;;;5.57;;
42840;SDS011;28491;46.898;7.660;2023-05-14T03:04:21;7.00;;;5.43;;
42840;SDS011;28491;46.898;7.660;2023-05-14T03:06:47;6.15;;;4.47;;
42840;SDS011;28491;46.898;7.660;2023-05-14T03:09:12;5.60;;;3.97;;
42840;SDS011;28491;46.898;7.660;2023-05-14T03:11:38;5.07;;;4.18;;
42840;SDS011;28491;46.898;7.660;2023-05-14T03:14:04;5.60;;;4.28;;
42840;SDS011;28491;46.898;7.660;2023-05-14T03:16:29;6.03;;;3.50;;
42840;SDS011;28491;46.898;7.660;2023-05-14T03:18:55;4.82;;;4.03;;
42840;SDS011;28491;46.898;7.660;2023-05-14T03:21:20;4.93;;;4.32;;
42840;SDS011;28491;46.898;7.660;2023-05-14T03:23:46;5.78;;;4.20;;
42840;SDS011;28491;46.898;7.660;2023-05-14T03:26:11;5.20;;;3.97;;
42840;SDS011;28491;46.898;7.660;2023-05-14T03:28:37;4.80;;;3.95;;
42840;SDS011;28491;46.898;7.660;2023-05-14T03:31:02;7.57;;;4.55;;
42840;SDS011;28491;46.898;7.660;2023-05-14T03:33:28;5.88;;;4.38;;
42840;SDS011;28491;46.898;7.660;2023-05-14T03:35:53;5.53;;;3.97;;
42840;SDS011;28491;46.898;7.660;2023-05-14T03:38:19;5.32;;;3.70;;
42840;SDS011;28491;46.898;7.660;2023-05-14T03:40:44;6.72;;;4.10;;
42840;SDS011;28491;46.898;7.660;2023-05-14T03:43:10;5.75;;;4.32;;
42840;SDS011;28491;46.898;7.660;2023-05-14T03:45:35;5.32;;;4.00;;
42840;SDS011;28491;46.898;7.660;2023-05-14T03:48:01;10.13;;;3.47;;
42840;SDS011;28491;46.898;7.660;2023-05-14T03:50:27;5.65;;;3.40;;
42840;SDS011;28491;46.898;7.660;2023-05-14T03:52:53;4.78;;;3.95;;
42840;SDS011;28491;46.898;7.660;2023-05-14T03:55:19;6.15;;;3.63;;
42840;SDS011;28491;46.898;7.660;2023-05-14T03:57:44;6.47;;;3.80;;
42840;SDS011;28491;46.898;7.660;2023-05-14T04:00:10;4.85;;;3.40;;
42840;SDS011;28491;46.898;7.660;2023-05-14T04:02:36;5.70;;;3.63;;
42840;SDS011;28491;46.898;7.660;2023-05-14T04:05:02;6.85;;;4.53;;
42840;SDS011;28491;46.898;7.660;2023-05-14T04:07:28;6.97;;;3.63;;
42840;SDS011;28491;46.898;7.660;2023-05-14T04:09:53;9.43;;;3.97;;
42840;SDS011;28491;46.898;7.660;2023-05-14T04:12:19;7.72;;;4.78;;
42840;SDS011;28491;46.898;7.660;2023-05-14T04:14:45;5.18;;;3.88;;
42840;SDS011;28491;46.898;7.660;2023-05-14T04:17:10;4.80;;;3.83;;
42840;SDS011;28491;46.898;7.660;2023-05-14T04:19:36;6.50;;;3.95;;
42840;SDS011;28491;46.898;7.660;2023-05-14T04:22:01;7.25;;;5.30;;
42840;SDS011;28491;46.898;7.660;2023-05-14T04:24:27;10.27;;;5.53;;
42840;SDS011;28491;46.898;7.660;2023-05-14T04:26:52;9.18;;;4.90;;
42840;SDS011;28491;46.898;7.660;2023-05-14T04:29:18;7.03;;;4.95;;
42840;SDS011;28491;46.898;7.660;2023-05-14T04:31:43;6.45;;;4.40;;
42840;SDS011;28491;46.898;7.660;2023-05-14T04:34:09;6.60;;;5.38;;
42840;SDS011;28491;46.898;7.660;2023-05-14T04:36:34;6.15;;;4.97;;
42840;SDS011;28491;46.898;7.660;2023-05-14T04:39:00;9.63;;;5.30;;
42840;SDS011;28491;46.898;7.660;2023-05-14T04:41:25;10.13;;;6.13;;
42840;SDS011;28491;46.898;7.660;2023-05-14T04:43:54;10.45;;;5.50;;
42840;SDS011;28491;46.898;7.660;2023-05-14T04:46:19;7.43;;;6.00;;
42840;SDS011;28491;46.898;7.660;2023-05-14T04:48:45;5.53;;;4.40;;
42840;SDS011;28491;46.898;7.660;2023-05-14T04:51:10;7.43;;;4.70;;
42840;SDS011;28491;46.898;7.660;2023-05-14T04:53:36;8.68;;;4.97;;
42840;SDS011;28491;46.898;7.660;2023-05-14T04:56:02;7.43;;;4.80;;
42840;SDS011;28491;46.898;7.660;2023-05-14T04:58:27;7.38;;;4.85;;
42840;SDS011;28491;46.898;7.660;2023-05-14T05:00:55;7.45;;;5.53;;
42840;SDS011;28491;46.898;7.660;2023-05-14T05:03:20;11.05;;;6.90;;
42840;SDS011;28491;46.898;7.660;2023-05-14T05:05:46;5.97;;;5.10;;
42840;SDS011;28491;46.898;7.660;2023-05-14T05:08:11;7.47;;;5.82;;
42840;SDS011;28491;46.898;7.660;2023-05-14T05:10:37;9.45;;;5.95;;
42840;SDS011;28491;46.898;7.660;2023-05-14T05:13:02;7.70;;;5.85;;
42840;SDS011;28491;46.898;7.660;2023-05-14T05:15:28;9.10;;;7.07;;
42840;SDS011;28491;46.898;7.660;2023-05-14T05:17:53;8.90;;;6.95;;
42840;SDS011;28491;46.898;7.660;2023-05-14T05:20:19;9.30;;;6.32;;
42840;SDS011;28491;46.898;7.660;2023-05-14T05:22:44;8.45;;;6.20;;
42840;SDS011;28491;46.898;7.660;2023-05-14T05:25:10;8.70;;;6.38;;
42840;SDS011;28491;46.898;7.660;2023-05-14T05:27:36;7.15;;;6.00;;
42840;SDS011;28491;46.898;7.660;2023-05-14T05:30:02;10.02;;;6.38;;
42840;SDS011;28491;46.898;7.660;2023-05-14T05:32:28;7.25;;;6.38;;
42840;SDS011;28491;46.898;7.660;2023-05-14T05:34:55;7.95;;;6.88;;
42840;SDS011;28491;46.898;7.660;2023-05-14T05:37:20;8.35;;;7.35;;
42840;SDS011;28491;46.898;7.660;2023-05-14T05:39:46;10.75;;;8.93;;
42840;SDS011;28491;46.898;7.660;2023-05-14T05:42:12;9.65;;;8.65;;
42840;SDS011;28491;46.898;7.660;2023-05-14T05:44:38;10.50;;;8.32;;
42840;SDS011;28491;46.898;7.660;2023-05-14T05:47:03;14.93;;;10.32;;
42840;SDS011;28491;46.898;7.660;2023-05-14T05:49:29;13.02;;;10.95;;
42840;SDS011;28491;46.898;7.660;2023-05-14T05:51:55;14.73;;;10.55;;
42840;SDS011;28491;46.898;7.660;2023-05-14T05:54:21;14.10;;;10.70;;
42840;SDS011;28491;46.898;7.660;2023-05-14T05:56:47;15.90;;;12.13;;
42840;SDS011;28491;46.898;7.660;2023-05-14T05:59:13;13.85;;;11.15;;
42840;SDS011;28491;46.898;7.660;2023-05-14T06:01:38;16.35;;;12.18;;
42840;SDS011;28491;46.898;7.660;2023-05-14T06:04:05;20.10;;;12.48;;
42840;SDS011;28491;46.898;7.660;2023-05-14T06:06:30;16.77;;;11.85;;
42840;SDS011;28491;46.898;7.660;2023-05-14T06:08:56;16.42;;;11.65;;
42840;SDS011;28491;46.898;7.660;2023-05-14T06:11:22;15.52;;;10.95;;
42840;SDS011;28491;46.898;7.660;2023-05-14T06:13:48;13.13;;;9.57;;
42840;SDS011;28491;46.898;7.660;2023-05-14T06:16:13;15.75;;;10.43;;
42840;SDS011;28491;46.898;7.660;2023-05-14T06:18:39;15.07;;;12.32;;
42840;SDS011;28491;46.898;7.660;2023-05-14T06:21:04;13.07;;;10.85;;
42840;SDS011;28491;46.898;7.660;2023-05-14T06:23:30;18.80;;;12.23;;
42840;SDS011;28491;46.898;7.660;2023-05-14T06:25:56;11.82;;;9.68;;
42840;SDS011;28491;46.898;7.660;2023-05-14T06:28:21;9.35;;;7.95;;
42840;SDS011;28491;46.898;7.660;2023-05-14T06:30:50;10.25;;;8.45;;
42840;SDS011;28491;46.898;7.660;2023-05-14T06:33:17;9.07;;;8.05;;
42840;SDS011;28491;46.898;7.660;2023-05-14T06:35:45;10.77;;;8.77;;
42840;SDS011;28491;46.898;7.660;2023-05-14T06:38:10;8.43;;;7.53;;
42840;SDS011;28491;46.898;7.660;2023-05-14T06:40:36;9.63;;;8.63;;
42840;SDS011;28491;46.898;7.660;2023-05-14T06:43:01;8.68;;;7.30;;
42840;SDS011;28491;46.898;7.660;2023-05-14T06:45:27;10.32;;;7.40;;
42840;SDS011;28491;46.898;7.660;2023-05-14T06:47:54;6.68;;;5.97;;
42840;SDS011;28491;46.898;7.660;2023-05-14T06:50:19;8.02;;;6.35;;
42840;SDS011;28491;46.898;7.660;2023-05-14T06:52:45;7.60;;;6.22;;
42840;SDS011;28491;46.898;7.660;2023-05-14T06:55:10;7.13;;;6.03;;
42840;SDS011;28491;46.898;7.660;2023-05-14T06:57:36;6.15;;;5.45;;
42840;SDS011;28491;46.898;7.660;2023-05-14T07:00:02;7.10;;;5.30;;
42840;SDS011;28491;46.898;7.660;2023-05-14T07:02:28;8.95;;;8.00;;
42840;SDS011;28491;46.898;7.660;2023-05-14T07:04:54;8.57;;;7.47;;
42840;SDS011;28491;46.898;7.660;2023-05-14T07:07:20;9.75;;;8.23;;
42840;SDS011;28491;46.898;7.660;2023-05-14T07:09:45;9.60;;;8.60;;
42840;SDS011;28491;46.898;7.660;2023-05-14T07:12:11;8.15;;;7.13;;
42840;SDS011;28491;46.898;7.660;2023-05-14T07:14:37;7.90;;;6.85;;
42840;SDS011;28491;46.898;7.660;2023-05-14T07:17:02;7.97;;;6.65;;
42840;SDS011;28491;46.898;7.660;2023-05-14T07:19:28;8.07;;;6.25;;
42840;SDS011;28491;46.898;7.660;2023-05-14T07:21:54;8.10;;;6.45;;
42840;SDS011;28491;46.898;7.660;2023-05-14T07:24:20;12.50;;;6.63;;
42840;SDS011;28491;46.898;7.660;2023-05-14T07:26:47;9.63;;;7.70;;
42840;SDS011;28491;46.898;7.660;2023-05-14T07:29:13;7.32;;;6.50;;
42840;SDS011;28491;46.898;7.660;2023-05-14T07:31:38;11.32;;;9.10;;
42840;SDS011;28491;46.898;7.660;2023-05-14T07:34:04;11.18;;;9.40;;
42840;SDS011;28491;46.898;7.660;2023-05-14T07:36:29;11.18;;;8.55;;
42840;SDS011;28491;46.898;7.660;2023-05-14T07:38:55;10.38;;;7.72;;
42840;SDS011;28491;46.898;7.660;2023-05-14T07:41:21;11.43;;;9.43;;
42840;SDS011;28491;46.898;7.660;2023-05-14T07:43:46;10.25;;;8.82;;
42840;SDS011;28491;46.898;7.660;2023-05-14T07:46:13;11.25;;;10.00;;
42840;SDS011;28491;46.898;7.660;2023-05-14T07:48:38;10.75;;;9.40;;
42840;SDS011;28491;46.898;7.660;2023-05-14T07:51:04;11.88;;;10.32;;
42840;SDS011;28491;46.898;7.660;2023-05-14T07:53:30;11.65;;;10.43;;
42840;SDS011;28491;46.898;7.660;2023-05-14T07:55:55;11.75;;;10.52;;
42840;SDS011;28491;46.898;7.660;2023-05-14T07:58:21;10.23;;;9.13;;
42840;SDS011;28491;46.898;7.660;2023-05-14T08:00:47;10.88;;;9.77;;
42840;SDS011;28491;46.898;7.660;2023-05-14T08:03:13;10.25;;;8.90;;
42840;SDS011;28491;46.898;7.660;2023-05-14T08:05:38;12.02;;;9.70;;
42840;SDS011;28491;46.898;7.660;2023-05-14T08:08:04;10.15;;;8.60;;
42840;SDS011;28491;46.898;7.660;2023-05-14T08:10:29;8.35;;;7.47;;
42840;SDS011;28491;46.898;7.660;2023-05-14T08:12:55;11.52;;;10.32;;
42840;SDS011;28491;46.898;7.660;2023-05-14T08:15:20;10.60;;;8.38;;
42840;SDS011;28491;46.898;7.660;2023-05-14T08:17:46;9.57;;;8.25;;
42840;SDS011;28491;46.898;7.660;2023-05-14T08:20:12;9.50;;;8.23;;
42840;SDS011;28491;46.898;7.660;2023-05-14T08:22:38;10.85;;;7.53;;
42840;SDS011;28491;46.898;7.660;2023-05-14T08:25:04;9.55;;;7.30;;
42840;SDS011;28491;46.898;7.660;2023-05-14T08:27:30;8.05;;;6.82;;
42840;SDS011;28491;46.898;7.660;2023-05-14T08:29:56;8.30;;;7.13;;
42840;SDS011;28491;46.898;7.660;2023-05-14T08:32:21;8.23;;;6.43;;
42840;SDS011;28491;46.898;7.660;2023-05-14T08:34:47;7.80;;;7.00;;
42840;SDS011;28491;46.898;7.660;2023-05-14T08:37:12;8.25;;;6.45;;
42840;SDS011;28491;46.898;7.660;2023-05-14T08:39:38;7.93;;;6.60;;
42840;SDS011;28491;46.898;7.660;2023-05-14T08:42:04;9.43;;;7.80;;
42840;SDS011;28491;46.898;7.660;2023-05-14T08:44:50;7.03;;;5.82;;
42840;SDS011;28491;46.898;7.660;2023-05-14T08:47:21;8.40;;;5.80;;
42840;SDS011;28491;46.898;7.660;2023-05-14T08:49:51;5.78;;;5.00;;
42840;SDS011;28491;46.898;7.660;2023-05-14T08:52:21;5.65;;;4.47;;
42840;SDS011;28491;46.898;7.660;2023-05-14T08:54:47;8.25;;;5.03;;
42840;SDS011;28491;46.898;7.660;2023-05-14T08:57:15;5.40;;;4.55;;
42840;SDS011;28491;46.898;7.660;2023-05-14T08:59:42;8.00;;;5.13;;
42840;SDS011;28491;46.898;7.660;2023-05-14T09:02:08;6.78;;;5.18;;
42840;SDS011;28491;46.898;7.660;2023-05-14T09:04:36;5.13;;;4.22;;
42840;SDS011;28491;46.898;7.660;2023-05-14T09:07:02;5.22;;;4.60;;
42840;SDS011;28491;46.898;7.660;2023-05-14T09:09:28;5.00;;;3.75;;
42840;SDS011;28491;46.898;7.660;2023-05-14T09:11:54;4.40;;;3.97;;
42840;SDS011;28491;46.898;7.660;2023-05-14T09:14:21;4.90;;;4.00;;
42840;SDS011;28491;46.898;7.660;2023-05-14T09:16:47;4.10;;;3.70;;
42840;SDS011;28491;46.898;7.660;2023-05-14T09:19:14;3.75;;;3.35;;
42840;SDS011;28491;46.898;7.660;2023-05-14T09:21:42;4.45;;;3.60;;
42840;SDS011;28491;46.898;7.660;2023-05-14T09:24:17;4.13;;;3.58;;
42840;SDS011;28491;46.898;7.660;2023-05-14T09:26:48;8.00;;;4.63;;
42840;SDS011;28491;46.898;7.660;2023-05-14T09:29:15;6.00;;;4.30;;
42840;SDS011;28491;46.898;7.660;2023-05-14T09:31:41;4.60;;;3.95;;
42840;SDS011;28491;46.898;7.660;2023-05-14T09:34:07;4.95;;;4.18;;
42840;SDS011;28491;46.898;7.660;2023-05-14T09:36:35;5.90;;;4.40;;
42840;SDS011;28491;46.898;7.660;2023-05-14T09:39:04;5.90;;;4.90;;
42840;SDS011;28491;46.898;7.660;2023-05-14T09:41:30;6.78;;;5.90;;
42840;SDS011;28491;46.898;7.660;2023-05-14T09:43:55;5.75;;;4.85;;
42840;SDS011;28491;46.898;7.660;2023-05-14T09:46:21;5.28;;;4.45;;
42840;SDS011;28491;46.898;7.660;2023-05-14T09:48:48;5.90;;;4.93;;
42840;SDS011;28491;46.898;7.660;2023-05-14T09:51:14;5.68;;;4.60;;
42840;SDS011;28491;46.898;7.660;2023-05-14T09:53:42;5.85;;;4.68;;
42840;SDS011;28491;46.898;7.660;2023-05-14T09:56:08;5.93;;;5.07;;
42840;SDS011;28491;46.898;7.660;2023-05-14T09:58:34;6.28;;;5.40;;
42840;SDS011;28491;46.898;7.660;2023-05-14T10:01:00;6.00;;;5.05;;
42840;SDS011;28491;46.898;7.660;2023-05-14T10:03:25;5.55;;;4.65;;
42840;SDS011;28491;46.898;7.660;2023-05-14T10:05:53;6.07;;;4.73;;
42840;SDS011;28491;46.898;7.660;2023-05-14T10:08:26;5.45;;;4.25;;
42840;SDS011;28491;46.898;7.660;2023-05-14T10:10:57;4.53;;;3.17;;
42840;SDS011;28491;46.898;7.660;2023-05-14T10:13:24;4.25;;;3.42;;
42840;SDS011;28491;46.898;7.660;2023-05-14T10:16:39;4.43;;;3.20;;
42840;SDS011;28491;46.898;7.660;2023-05-14T10:18:49;4.13;;;2.97;;
42840;SDS011;28491;46.898;7.660;2023-05-14T10:21:19;4.28;;;3.42;;
42840;SDS011;28491;46.898;7.660;2023-05-14T10:23:45;4.57;;;3.50;;
42840;SDS011;28491;46.898;7.660;2023-05-14T10:26:12;5.47;;;3.40;;
42840;SDS011;28491;46.898;7.660;2023-05-14T10:28:38;4.30;;;3.17;;
42840;SDS011;28491;46.898;7.660;2023-05-14T10:31:04;5.50;;;3.38;;
42840;SDS011;28491;46.898;7.660;2023-05-14T10:33:29;4.57;;;3.53;;
42840;SDS011;28491;46.898;7.660;2023-05-14T10:36:09;4.50;;;4.00;;
42840;SDS011;28491;46.898;7.660;2023-05-14T10:38:36;5.22;;;4.20;;
42840;SDS011;28491;46.898;7.660;2023-05-14T10:41:02;4.50;;;3.97;;
42840;SDS011;28491;46.898;7.660;2023-05-14T10:43:36;5.75;;;4.40;;
42840;SDS011;28491;46.898;7.660;2023-05-14T10:46:03;4.68;;;4.00;;
42840;SDS011;28491;46.898;7.660;2023-05-14T10:48:29;4.55;;;3.95;;
42840;SDS011;28491;46.898;7.660;2023-05-14T10:50:55;5.97;;;4.88;;
42840;SDS011;28491;46.898;7.660;2023-05-14T10:53:31;5.38;;;4.60;;
42840;SDS011;28491;46.898;7.660;2023-05-14T10:56:12;5.82;;;4.70;;
42840;SDS011;28491;46.898;7.660;2023-05-14T10:58:39;6.15;;;4.55;;
42840;SDS011;28491;46.898;7.660;2023-05-14T11:01:09;5.80;;;4.53;;
42840;SDS011;28491;46.898;7.660;2023-05-14T11:03:39;7.55;;;5.55;;
42840;SDS011;28491;46.898;7.660;2023-05-14T11:06:06;6.57;;;5.28;;
42840;SDS011;28491;46.898;7.660;2023-05-14T11:08:33;4.85;;;3.95;;
42840;SDS011;28491;46.898;7.660;2023-05-14T11:10:58;5.35;;;4.75;;
42840;SDS011;28491;46.898;7.660;2023-05-14T11:13:25;4.70;;;3.88;;
42840;SDS011;28491;46.898;7.660;2023-05-14T11:15:50;5.43;;;4.20;;
42840;SDS011;28491;46.898;7.660;2023-05-14T11:18:26;4.78;;;3.92;;
42840;SDS011;28491;46.898;7.660;2023-05-14T11:21:02;4.22;;;3.35;;
42840;SDS011;28491;46.898;7.660;2023-05-14T11:23:28;6.85;;;4.05;;
42840;SDS011;28491;46.898;7.660;2023-05-14T11:25:54;4.65;;;3.88;;
42840;SDS011;28491;46.898;7.660;2023-05-14T11:28:23;5.47;;;3.65;;
42840;SDS011;28491;46.898;7.660;2023-05-14T11:30:51;4.53;;;3.95;;
42840;SDS011;28491;46.898;7.660;2023-05-14T11:33:17;5.45;;;4.40;;
42840;SDS011;28491;46.898;7.660;2023-05-14T11:35:44;4.72;;;3.70;;
42840;SDS011;28491;46.898;7.660;2023-05-14T11:38:16;4.20;;;3.63;;
42840;SDS011;28491;46.898;7.660;2023-05-14T11:40:55;4.80;;;4.07;;
42840;SDS011;28491;46.898;7.660;2023-05-14T11:45:48;5.15;;;3.97;;
42840;SDS011;28491;46.898;7.660;2023-05-14T11:48:18;8.10;;;3.55;;
42840;SDS011;28491;46.898;7.660;2023-05-14T11:50:45;3.42;;;3.08;;
42840;SDS011;28491;46.898;7.660;2023-05-14T11:53:19;5.05;;;4.15;;
42840;SDS011;28491;46.898;7.660;2023-05-14T11:55:54;5.47;;;4.88;;
42840;SDS011;28491;46.898;7.660;2023-05-14T11:58:21;4.05;;;3.25;;
42840;SDS011;28491;46.898;7.660;2023-05-14T12:00:51;4.43;;;3.58;;
42840;SDS011;28491;46.898;7.660;2023-05-14T12:03:17;4.68;;;4.05;;
42840;SDS011;28491;46.898;7.660;2023-05-14T12:06:00;5.72;;;4.20;;
42840;SDS011;28491;46.898;7.660;2023-05-14T12:08:27;4.30;;;3.90;;
42840;SDS011;28491;46.898;7.660;2023-05-14T12:10:54;5.75;;;3.88;;
42840;SDS011;28491;46.898;7.660;2023-05-14T12:13:20;3.75;;;3.30;;
42840;SDS011;28491;46.898;7.660;2023-05-14T12:15:47;5.00;;;3.88;;
42840;SDS011;28491;46.898;7.660;2023-05-14T12:18:18;4.40;;;3.80;;
42840;SDS011;28491;46.898;7.660;2023-05-14T12:20:46;4.43;;;3.33;;
42840;SDS011;28491;46.898;7.660;2023-05-14T12:23:13;4.72;;;3.22;;
42840;SDS011;28491;46.898;7.660;2023-05-14T12:25:39;5.40;;;3.38;;
42840;SDS011;28491;46.898;7.660;2023-05-14T12:28:14;3.78;;;3.15;;
42840;SDS011;28491;46.898;7.660;2023-05-14T12:30:40;4.15;;;2.67;;
42840;SDS011;28491;46.898;7.660;2023-05-14T12:33:05;3.60;;;2.75;;
42840;SDS011;28491;46.898;7.660;2023-05-14T12:35:31;3.90;;;3.13;;
42840;SDS011;28491;46.898;7.660;2023-05-14T12:37:57;4.00;;;3.20;;
42840;SDS011;28491;46.898;7.660;2023-05-14T12:40:22;3.47;;;2.55;;
42840;SDS011;28491;46.898;7.660;2023-05-14T12:42:48;3.38;;;2.50;;
42840;SDS011;28491;46.898;7.660;2023-05-14T12:45:13;3.08;;;2.40;;
42840;SDS011;28491;46.898;7.660;2023-05-14T12:47:39;3.33;;;2.25;;
42840;SDS011;28491;46.898;7.660;2023-05-14T12:50:04;4.15;;;2.60;;
42840;SDS011;28491;46.898;7.660;2023-05-14T12:52:30;4.45;;;2.45;;
42840;SDS011;28491;46.898;7.660;2023-05-14T12:54:56;2.90;;;2.20;;
42840;SDS011;28491;46.898;7.660;2023-05-14T12:57:22;3.03;;;2.13;;
42840;SDS011;28491;46.898;7.660;2023-05-14T12:59:47;3.15;;;2.28;;
42840;SDS011;28491;46.898;7.660;2023-05-14T13:02:12;3.45;;;2.28;;
42840;SDS011;28491;46.898;7.660;2023-05-14T13:04:39;2.80;;;2.13;;
42840;SDS011;28491;46.898;7.660;2023-05-14T13:07:05;3.58;;;2.58;;
42840;SDS011;28491;46.898;7.660;2023-05-14T13:09:32;4.00;;;2.28;;
42840;SDS011;28491;46.898;7.660;2023-05-14T13:11:58;3.03;;;2.47;;
42840;SDS011;28491;46.898;7.660;2023-05-14T13:14:23;2.70;;;2.17;;
42840;SDS011;28491;46.898;7.660;2023-05-14T13:16:49;2.40;;;2.10;;
42840;SDS011;28491;46.898;7.660;2023-05-14T13:19:14;2.20;;;1.83;;
42840;SDS011;28491;46.898;7.660;2023-05-14T13:21:40;2.20;;;1.90;;
42840;SDS011;28491;46.898;7.660;2023-05-14T13:24:06;2.47;;;1.88;;
42840;SDS011;28491;46.898;7.660;2023-05-14T13:26:33;2.72;;;2.05;;
42840;SDS011;28491;46.898;7.660;2023-05-14T13:29:00;2.70;;;2.13;;
42840;SDS011;28491;46.898;7.660;2023-05-14T13:31:25;2.85;;;1.85;;
42840;SDS011;28491;46.898;7.660;2023-05-14T13:33:51;7.40;;;5.95;;
42840;SDS011;28491;46.898;7.660;2023-05-14T13:36:17;2.42;;;1.95;;
42840;SDS011;28491;46.898;7.660;2023-05-14T13:38:42;2.30;;;1.90;;
42840;SDS011;28491;46.898;7.660;2023-05-14T13:41:09;10.48;;;2.70;;
42840;SDS011;28491;46.898;7.660;2023-05-14T13:43:35;6.38;;;2.88;;
42840;SDS011;28491;46.898;7.660;2023-05-14T13:46:02;3.38;;;2.20;;
42840;SDS011;28491;46.898;7.660;2023-05-14T13:48:28;4.50;;;4.10;;
42840;SDS011;28491;46.898;7.660;2023-05-14T13:50:55;5.00;;;3.13;;
42840;SDS011;28491;46.898;7.660;2023-05-14T13:53:21;4.20;;;2.60;;
42840;SDS011;28491;46.898;7.660;2023-05-14T13:55:47;3.35;;;2.45;;
42840;SDS011;28491;46.898;7.660;2023-05-14T13:58:13;3.45;;;2.50;;
42840;SDS011;28491;46.898;7.660;2023-05-14T14:00:39;3.95;;;2.42;;
42840;SDS011;28491;46.898;7.660;2023-05-14T14:03:05;3.60;;;2.88;;
42840;SDS011;28491;46.898;7.660;2023-05-14T14:05:32;3.10;;;2.08;;
42840;SDS011;28491;46.898;7.660;2023-05-14T14:07:58;4.20;;;2.28;;
42840;SDS011;28491;46.898;7.660;2023-05-14T14:10:24;3.30;;;2.20;;
42840;SDS011;28491;46.898;7.660;2023-05-14T14:12:49;3.03;;;2.22;;
42840;SDS011;28491;46.898;7.660;2023-05-14T14:15:15;3.40;;;2.28;;
42840;SDS011;28491;46.898;7.660;2023-05-14T14:17:41;2.55;;;1.85;;
42840;SDS011;28491;46.898;7.660;2023-05-14T14:20:07;2.47;;;1.83;;
42840;SDS011;28491;46.898;7.660;2023-05-14T14:22:33;2.75;;;2.08;;
42840;SDS011;28491;46.898;7.660;2023-05-14T14:24:59;2.90;;;2.00;;
42840;SDS011;28491;46.898;7.660;2023-05-14T14:27:24;2.58;;;2.10;;
42840;SDS011;28491;46.898;7.660;2023-05-14T14:29:50;3.10;;;2.42;;
42840;SDS011;28491;46.898;7.660;2023-05-14T14:32:15;2.40;;;2.00;;
42840;SDS011;28491;46.898;7.660;2023-05-14T14:34:41;3.53;;;1.90;;
42840;SDS011;28491;46.898;7.660;2023-05-14T14:37:06;6.97;;;4.63;;
42840;SDS011;28491;46.898;7.660;2023-05-14T14:39:32;8.50;;;5.40;;
42840;SDS011;28491;46.898;7.660;2023-05-14T14:41:58;3.50;;;2.67;;
42840;SDS011;28491;46.898;7.660;2023-05-14T14:44:23;2.63;;;2.33;;
42840;SDS011;28491;46.898;7.660;2023-05-14T14:46:49;3.17;;;2.67;;
42840;SDS011;28491;46.898;7.660;2023-05-14T14:49:14;4.90;;;2.40;;
42840;SDS011;28491;46.898;7.660;2023-05-14T14:51:40;3.22;;;2.67;;
42840;SDS011;28491;46.898;7.660;2023-05-14T14:54:05;6.60;;;3.65;;